sensor_id;sensor_type;location;lat;lon;timestamp;pressure;altitude;pressure_sealevel;temperature;humidity
7026;BME280;3554;42.132;24.786;2023-05-08T00:00:59;99603.06;;;13.55;100.00
7026;BME280;3554;42.132;24.786;2023-05-08T00:03:25;99612.97;;;13.50;100.00
7026;BME280;3554;42.132;24.786;2023-05-08T00:05:52;99603.06;;;13.55;100.00
7026;BME280;3554;42.132;24.786;2023-05-08T00:08:20;99605.16;;;13.49;100.00
7026;BME280;3554;42.132;24.786;2023-05-08T00:10:49;99599.56;;;13.38;100.00
7026;BME280;3554;42.132;24.786;2023-05-08T00:13:15;99606.81;;;13.33;100.00
7026;BME280;3554;42.132;24.786;2023-05-08T00:15:42;99600.03;;;13.46;100.00
7026;BME280;3554;42.132;24.786;2023-05-08T00:18:09;99601.75;;;13.47;100.00
7026;BME280;3554;42.132;24.786;2023-05-08T00:20:36;99607.88;;;13.64;100.00
7026;BME280;3554;42.132;24.786;2023-05-08T00:23:03;99605.78;;;13.71;100.00
7026;BME280;3554;42.132;24.786;2023-05-08T00:25:30;99609.53;;;13.67;100.00
7026;BME280;3554;42.132;24.786;2023-05-08T00:27:58;99605.78;;;13.71;100.00
7026;BME280;3554;42.132;24.786;2023-05-08T00:30:25;99592.81;;;13.68;100.00
7026;BME280;3554;42.132;24.786;2023-05-08T00:32:52;99599.91;;;13.66;100.00
7026;BME280;3554;42.132;24.786;2023-05-08T00:35:19;99607.09;;;13.62;100.00
7026;BME280;3554;42.132;24.786;2023-05-08T00:37:46;99596.66;;;13.61;100.00
7026;BME280;3554;42.132;24.786;2023-05-08T00:40:13;99595.88;;;13.59;100.00
7026;BME280;3554;42.132;24.786;2023-05-08T00:42:39;99592.78;;;13.51;100.00
7026;BME280;3554;42.132;24.786;2023-05-08T00:45:08;99587.91;;;13.43;100.00
7026;BME280;3554;42.132;24.786;2023-05-08T00:47:36;99547.94;;;13.18;100.00
7026;BME280;3554;42.132;24.786;2023-05-08T00:50:04;99615.47;;;13.70;100.00
7026;BME280;3554;42.132;24.786;2023-05-08T00:52:32;99612.97;;;13.67;100.00
7026;BME280;3554;42.132;24.786;2023-05-08T00:54:59;99615.75;;;13.47;100.00
7026;BME280;3554;42.132;24.786;2023-05-08T00:57:28;99617.09;;;13.37;100.00
7026;BME280;3554;42.132;24.786;2023-05-08T00:59:56;99612.34;;;13.27;100.00
7026;BME280;3554;42.132;24.786;2023-05-08T01:02:24;99613.41;;;13.41;100.00
7026;BME280;3554;42.132;24.786;2023-05-08T01:04:52;99621.50;;;13.37;100.00
7026;BME280;3554;42.132;24.786;2023-05-08T01:07:20;99623.50;;;13.32;100.00
7026;BME280;3554;42.132;24.786;2023-05-08T01:09:47;99616.00;;;13.24;100.00
7026;BME280;3554;42.132;24.786;2023-05-08T01:12:17;99626.63;;;13.40;100.00
7026;BME280;3554;42.132;24.786;2023-05-08T01:14:56;99583.16;;;13.14;100.00
7026;BME280;3554;42.132;24.786;2023-05-08T01:17:37;99636.00;;;13.45;100.00
7026;BME280;3554;42.132;24.786;2023-05-08T01:20:14;99630.06;;;13.23;100.00
7026;BME280;3554;42.132;24.786;2023-05-08T01:22:58;99636.16;;;13.24;100.00
7026;BME280;3554;42.132;24.786;2023-05-08T01:32:13;99635.88;;;13.11;100.00
7026;BME280;3554;42.132;24.786;2023-05-08T01:34:48;99631.91;;;13.03;100.00
7026;BME280;3554;42.132;24.786;2023-05-08T01:37:22;99632.16;;;12.97;100.00
7026;BME280;3554;42.132;24.786;2023-05-08T01:39:57;99618.81;;;12.82;100.00
7026;BME280;3554;42.132;24.786;2023-05-08T01:42:32;99593.09;;;12.70;100.00
7026;BME280;3554;42.132;24.786;2023-05-08T01:45:04;99615.25;;;12.83;100.00
7026;BME280;3554;42.132;24.786;2023-05-08T01:47:36;99625.75;;;12.83;100.00
7026;BME280;3554;42.132;24.786;2023-05-08T01:50:07;99619.38;;;12.70;100.00
7026;BME280;3554;42.132;24.786;2023-05-08T01:52:42;99625.34;;;12.74;100.00
7026;BME280;3554;42.132;24.786;2023-05-08T01:55:15;99617.56;;;12.71;100.00
7026;BME280;3554;42.132;24.786;2023-05-08T01:57:46;99617.94;;;12.63;100.00
7026;BME280;3554;42.132;24.786;2023-05-08T02:00:16;99627.38;;;12.67;100.00
7026;BME280;3554;42.132;24.786;2023-05-08T02:02:46;99618.44;;;12.71;100.00
7026;BME280;3554;42.132;24.786;2023-05-08T02:05:14;99612.03;;;12.58;100.00
7026;BME280;3554;42.132;24.786;2023-05-08T02:07:42;99628.53;;;12.62;100.00
7026;BME280;3554;42.132;24.786;2023-05-08T02:10:11;99622.91;;;12.69;100.00
7026;BME280;3554;42.132;24.786;2023-05-08T02:12:39;99622.59;;;12.57;100.00
7026;BME280;3554;42.132;24.786;2023-05-08T02:15:08;99615.50;;;12.59;100.00
7026;BME280;3554;42.132;24.786;2023-05-08T02:17:38;99602.06;;;12.46;100.00
7026;BME280;3554;42.132;24.786;2023-05-08T02:20:10;99615.84;;;12.51;100.00
7026;BME280;3554;42.132;24.786;2023-05-08T02:22:40;99612.22;;;12.54;100.00
7026;BME280;3554;42.132;24.786;2023-05-08T02:25:09;99603.88;;;12.46;100.00
7026;BME280;3554;42.132;24.786;2023-05-08T02:27:40;99625.22;;;12.57;100.00
7026;BME280;3554;42.132;24.786;2023-05-08T02:30:11;99614.69;;;12.58;100.00
7026;BME280;3554;42.132;24.786;2023-05-08T02:32:40;99630.59;;;12.74;100.00
7026;BME280;3554;42.132;24.786;2023-05-08T02:35:11;99622.78;;;12.72;100.00
7026;BME280;3554;42.132;24.786;2023-05-08T02:37:40;99635.94;;;12.71;100.00
7026;BME280;3554;42.132;24.786;2023-05-08T02:40:09;99630.66;;;12.72;100.00
7026;BME280;3554;42.132;24.786;2023-05-08T02:42:37;99626.72;;;12.62;100.00
7026;BME280;3554;42.132;24.786;2023-05-08T02:45:05;99631.06;;;12.63;100.00
7026;BME280;3554;42.132;24.786;2023-05-08T02:47:38;99585.88;;;12.37;100.00
7026;BME280;3554;42.132;24.786;2023-05-08T02:50:15;99639.28;;;12.74;100.00
7026;BME280;3554;42.132;24.786;2023-05-08T02:52:46;99627.38;;;12.67;100.00
7026;BME280;3554;42.132;24.786;2023-05-08T02:55:22;99631.66;;;12.88;100.00
7026;BME280;3554;42.132;24.786;2023-05-08T02:58:01;99633.78;;;12.62;100.00
7026;BME280;3554;42.132;24.786;2023-05-08T03:00:32;99630.63;;;12.54;100.00
7026;BME280;3554;42.132;24.786;2023-05-08T03:03:08;99628.31;;;12.46;100.00
7026;BME280;3554;42.132;24.786;2023-05-08T03:05:42;99635.56;;;12.41;100.00
7026;BME280;3554;42.132;24.786;2023-05-08T03:08:23;99636.41;;;12.42;100.00
7026;BME280;3554;42.132;24.786;2023-05-08T03:10:53;99583.75;;;12.06;100.00
7026;BME280;3554;42.132;24.786;2023-05-08T03:13:21;99636.09;;;12.49;100.00
7026;BME280;3554;42.132;24.786;2023-05-08T03:15:53;99635.00;;;12.53;100.00
7026;BME280;3554;42.132;24.786;2023-05-08T03:18:24;99639.03;;;12.62;100.00
7026;BME280;3554;42.132;24.786;2023-05-08T03:20:55;99626.72;;;12.62;100.00
7026;BME280;3554;42.132;24.786;2023-05-08T03:23:25;99640.00;;;12.59;100.00
7026;BME280;3554;42.132;24.786;2023-05-08T03:25:54;99643.47;;;12.60;100.00
7026;BME280;3554;42.132;24.786;2023-05-08T03:28:23;99647.47;;;12.68;100.00
7026;BME280;3554;42.132;24.786;2023-05-08T03:30:50;99655.81;;;12.58;100.00
7026;BME280;3554;42.132;24.786;2023-05-08T03:33:20;99660.19;;;12.77;100.00
7026;BME280;3554;42.132;24.786;2023-05-08T03:35:48;99660.28;;;12.94;100.00
7026;BME280;3554;42.132;24.786;2023-05-08T03:38:18;99657.47;;;13.18;100.00
7026;BME280;3554;42.132;24.786;2023-05-08T03:40:45;99659.09;;;13.39;100.00
7026;BME280;3554;42.132;24.786;2023-05-08T03:43:12;99664.06;;;13.63;100.00
7026;BME280;3554;42.132;24.786;2023-05-08T03:45:40;99664.25;;;13.94;100.00
7026;BME280;3554;42.132;24.786;2023-05-08T03:48:08;99669.38;;;14.15;100.00
7026;BME280;3554;42.132;24.786;2023-05-08T03:50:36;99681.41;;;14.37;100.00
7026;BME280;3554;42.132;24.786;2023-05-08T03:53:04;99672.00;;;14.66;100.00
7026;BME280;3554;42.132;24.786;2023-05-08T03:55:32;99680.53;;;15.03;100.00
7026;BME280;3554;42.132;24.786;2023-05-08T03:58:03;99679.03;;;15.31;100.00
7026;BME280;3554;42.132;24.786;2023-05-08T04:00:42;99669.50;;;15.28;100.00
7026;BME280;3554;42.132;24.786;2023-05-08T04:03:20;99682.97;;;15.39;100.00
7026;BME280;3554;42.132;24.786;2023-05-08T04:05:50;99694.19;;;15.27;100.00
7026;BME280;3554;42.132;24.786;2023-05-08T04:08:24;99691.69;;;15.09;100.00
7026;BME280;3554;42.132;24.786;2023-05-08T04:11:03;99684.28;;;15.15;100.00
7026;BME280;3554;42.132;24.786;2023-05-08T04:13:35;99690.81;;;15.41;100.00
7026;BME280;3554;42.132;24.786;2023-05-08T04:16:05;99697.72;;;15.59;100.00
7026;BME280;3554;42.132;24.786;2023-05-08T04:18:36;99695.84;;;15.76;100.00
7026;BME280;3554;42.132;24.786;2023-05-08T04:21:08;99698.88;;;16.00;100.00
7026;BME280;3554;42.132;24.786;2023-05-08T04:23:38;99697.88;;;16.32;100.00
7026;BME280;3554;42.132;24.786;2023-05-08T04:26:07;99707.66;;;16.60;100.00
7026;BME280;3554;42.132;24.786;2023-05-08T04:28:36;99694.88;;;16.82;100.00
7026;BME280;3554;42.132;24.786;2023-05-08T04:31:03;99702.16;;;16.92;100.00
7026;BME280;3554;42.132;24.786;2023-05-08T04:33:32;99702.63;;;17.13;100.00
7026;BME280;3554;42.132;24.786;2023-05-08T04:36:00;99694.22;;;17.06;100.00
7026;BME280;3554;42.132;24.786;2023-05-08T04:38:27;99693.81;;;17.12;100.00
7026;BME280;3554;42.132;24.786;2023-05-08T04:40:54;99702.16;;;17.21;100.00
7026;BME280;3554;42.132;24.786;2023-05-08T04:43:22;99707.78;;;17.29;100.00
7026;BME280;3554;42.132;24.786;2023-05-08T04:45:49;99706.59;;;17.48;100.00
7026;BME280;3554;42.132;24.786;2023-05-08T04:48:16;99707.31;;;17.64;96.44
7026;BME280;3554;42.132;24.786;2023-05-08T04:50:43;99703.69;;;17.79;98.86
7026;BME280;3554;42.132;24.786;2023-05-08T04:53:10;99712.28;;;17.83;97.35
7026;BME280;3554;42.132;24.786;2023-05-08T04:55:36;99710.44;;;17.29;94.63
7026;BME280;3554;42.132;24.786;2023-05-08T04:58:03;99700.88;;;17.68;97.36
7026;BME280;3554;42.132;24.786;2023-05-08T05:00:32;99705.75;;;17.88;95.98
7026;BME280;3554;42.132;24.786;2023-05-08T05:02:59;99699.81;;;17.85;95.47
7026;BME280;3554;42.132;24.786;2023-05-08T05:05:26;99699.47;;;18.16;89.85
7026;BME280;3554;42.132;24.786;2023-05-08T05:07:52;99704.34;;;18.09;89.78
7026;BME280;3554;42.132;24.786;2023-05-08T05:10:19;99693.69;;;17.97;90.75
7026;BME280;3554;42.132;24.786;2023-05-08T05:12:46;99703.25;;;17.59;94.43
7026;BME280;3554;42.132;24.786;2023-05-08T05:15:13;99710.66;;;17.80;95.19
7026;BME280;3554;42.132;24.786;2023-05-08T05:17:41;99715.84;;;18.23;90.79
7026;BME280;3554;42.132;24.786;2023-05-08T05:20:09;99709.25;;;18.15;90.11
7026;BME280;3554;42.132;24.786;2023-05-08T05:22:36;99708.28;;;17.90;91.61
7026;BME280;3554;42.132;24.786;2023-05-08T05:25:03;99699.25;;;17.80;92.83
7026;BME280;3554;42.132;24.786;2023-05-08T05:27:30;99697.94;;;17.73;94.23
7026;BME280;3554;42.132;24.786;2023-05-08T05:29:57;99687.44;;;17.71;95.21
7026;BME280;3554;42.132;24.786;2023-05-08T05:32:24;99694.56;;;17.97;92.37
7026;BME280;3554;42.132;24.786;2023-05-08T05:34:52;99685.41;;;18.28;91.14
7026;BME280;3554;42.132;24.786;2023-05-08T05:37:19;99697.19;;;18.24;91.48
7026;BME280;3554;42.132;24.786;2023-05-08T05:39:46;99687.38;;;18.39;89.88
7026;BME280;3554;42.132;24.786;2023-05-08T05:42:13;99680.94;;;18.55;87.34
7026;BME280;3554;42.132;24.786;2023-05-08T05:44:40;99673.31;;;18.76;85.31
7026;BME280;3554;42.132;24.786;2023-05-08T05:47:07;99692.09;;;18.85;80.58
7026;BME280;3554;42.132;24.786;2023-05-08T05:49:35;99690.91;;;18.52;86.26
7026;BME280;3554;42.132;24.786;2023-05-08T05:52:05;99686.47;;;18.77;87.93
7026;BME280;3554;42.132;24.786;2023-05-08T05:54:31;99674.78;;;18.80;85.40
7026;BME280;3554;42.132;24.786;2023-05-08T05:56:58;99675.13;;;18.88;87.50
7026;BME280;3554;42.132;24.786;2023-05-08T05:59:25;99672.75;;;18.96;83.68
7026;BME280;3554;42.132;24.786;2023-05-08T06:01:52;99671.94;;;19.08;81.22
7026;BME280;3554;42.132;24.786;2023-05-08T06:04:18;99666.63;;;18.83;79.66
7026;BME280;3554;42.132;24.786;2023-05-08T06:06:45;99674.16;;;18.89;79.96
7026;BME280;3554;42.132;24.786;2023-05-08T06:09:14;99674.47;;;18.59;80.66
7026;BME280;3554;42.132;24.786;2023-05-08T06:11:41;99680.09;;;18.67;84.45
7026;BME280;3554;42.132;24.786;2023-05-08T06:14:08;99675.63;;;18.68;80.14
7026;BME280;3554;42.132;24.786;2023-05-08T06:16:35;99675.34;;;18.97;74.63
7026;BME280;3554;42.132;24.786;2023-05-08T06:19:02;99671.31;;;18.92;75.99
7026;BME280;3554;42.132;24.786;2023-05-08T06:21:28;99673.09;;;18.79;79.62
7026;BME280;3554;42.132;24.786;2023-05-08T06:23:55;99660.69;;;18.67;84.17
7026;BME280;3554;42.132;24.786;2023-05-08T06:26:23;99670.97;;;18.84;82.45
7026;BME280;3554;42.132;24.786;2023-05-08T06:28:50;99663.13;;;19.07;81.71
7026;BME280;3554;42.132;24.786;2023-05-08T06:31:17;99665.88;;;19.06;77.77
7026;BME280;3554;42.132;24.786;2023-05-08T06:33:44;99671.16;;;18.43;82.80
7026;BME280;3554;42.132;24.786;2023-05-08T06:36:11;99669.91;;;18.61;83.61
7026;BME280;3554;42.132;24.786;2023-05-08T06:38:38;99669.22;;;18.33;84.86
7026;BME280;3554;42.132;24.786;2023-05-08T06:41:04;99652.22;;;18.62;83.89
7026;BME280;3554;42.132;24.786;2023-05-08T06:43:33;99651.34;;;19.11;78.65
7026;BME280;3554;42.132;24.786;2023-05-08T06:45:59;99662.00;;;19.22;76.08
7026;BME280;3554;42.132;24.786;2023-05-08T06:48:26;99651.09;;;19.40;76.76
7026;BME280;3554;42.132;24.786;2023-05-08T06:50:53;99662.28;;;19.56;72.56
7026;BME280;3554;42.132;24.786;2023-05-08T06:53:20;99653.00;;;19.74;74.10
7026;BME280;3554;42.132;24.786;2023-05-08T06:55:47;99655.22;;;19.67;72.88
7026;BME280;3554;42.132;24.786;2023-05-08T06:58:14;99644.91;;;19.75;74.19
7026;BME280;3554;42.132;24.786;2023-05-08T07:00:42;99642.75;;;19.80;83.01
7026;BME280;3554;42.132;24.786;2023-05-08T07:03:09;99636.91;;;19.52;79.90
7026;BME280;3554;42.132;24.786;2023-05-08T07:05:35;99639.56;;;19.52;80.68
7026;BME280;3554;42.132;24.786;2023-05-08T07:08:02;99632.41;;;19.65;82.12
7026;BME280;3554;42.132;24.786;2023-05-08T07:10:29;99637.88;;;19.98;78.63
7026;BME280;3554;42.132;24.786;2023-05-08T07:12:56;99642.00;;;20.02;77.25
7026;BME280;3554;42.132;24.786;2023-05-08T07:15:23;99627.25;;;19.74;79.07
7026;BME280;3554;42.132;24.786;2023-05-08T07:17:51;99631.09;;;19.94;83.25
7026;BME280;3554;42.132;24.786;2023-05-08T07:20:18;99630.69;;;19.87;83.11
7026;BME280;3554;42.132;24.786;2023-05-08T07:22:44;99631.03;;;20.06;79.64
7026;BME280;3554;42.132;24.786;2023-05-08T07:25:11;99627.25;;;19.98;78.53
7026;BME280;3554;42.132;24.786;2023-05-08T07:27:38;99623.44;;;20.13;81.73
7026;BME280;3554;42.132;24.786;2023-05-08T07:30:06;99619.19;;;19.52;83.62
7026;BME280;3554;42.132;24.786;2023-05-08T07:32:33;99603.63;;;19.82;80.47
7026;BME280;3554;42.132;24.786;2023-05-08T07:35:02;99621.13;;;19.25;84.54
7026;BME280;3554;42.132;24.786;2023-05-08T07:37:30;99616.19;;;19.20;88.70
7026;BME280;3554;42.132;24.786;2023-05-08T07:39:57;99616.56;;;19.40;91.05
7026;BME280;3554;42.132;24.786;2023-05-08T07:42:24;99620.25;;;19.50;90.93
7026;BME280;3554;42.132;24.786;2023-05-08T07:44:51;99613.47;;;19.69;91.51
7026;BME280;3554;42.132;24.786;2023-05-08T07:47:17;99608.28;;;20.26;93.15
7026;BME280;3554;42.132;24.786;2023-05-08T07:49:44;99613.03;;;20.45;86.28
7026;BME280;3554;42.132;24.786;2023-05-08T07:52:12;99612.59;;;20.73;83.85
7026;BME280;3554;42.132;24.786;2023-05-08T07:54:39;99610.31;;;20.90;86.03
7026;BME280;3554;42.132;24.786;2023-05-08T07:57:06;99606.31;;;20.96;86.13
7026;BME280;3554;42.132;24.786;2023-05-08T07:59:32;99605.41;;;20.40;84.75
7026;BME280;3554;42.132;24.786;2023-05-08T08:01:59;99609.13;;;20.27;89.92
7026;BME280;3554;42.132;24.786;2023-05-08T08:04:26;99603.38;;;20.55;84.27
7026;BME280;3554;42.132;24.786;2023-05-08T08:06:53;99594.81;;;20.62;86.20
7026;BME280;3554;42.132;24.786;2023-05-08T08:09:21;99596.72;;;20.49;82.37
7026;BME280;3554;42.132;24.786;2023-05-08T08:11:47;99574.88;;;20.68;88.00
7026;BME280;3554;42.132;24.786;2023-05-08T08:14:14;99587.44;;;20.77;86.80
7026;BME280;3554;42.132;24.786;2023-05-08T08:16:41;99574.16;;;20.77;84.14
7026;BME280;3554;42.132;24.786;2023-05-08T08:19:08;99587.81;;;20.94;81.74
7026;BME280;3554;42.132;24.786;2023-05-08T08:21:35;99579.94;;;20.93;88.29
7026;BME280;3554;42.132;24.786;2023-05-08T08:24:01;99583.47;;;21.04;85.92
7026;BME280;3554;42.132;24.786;2023-05-08T08:26:29;99572.31;;;20.88;90.00
7026;BME280;3554;42.132;24.786;2023-05-08T08:28:56;99575.09;;;20.98;84.64
7026;BME280;3554;42.132;24.786;2023-05-08T08:31:23;99572.56;;;21.18;84.21
7026;BME280;3554;42.132;24.786;2023-05-08T08:33:50;99578.78;;;21.51;83.83
7026;BME280;3554;42.132;24.786;2023-05-08T08:36:17;99563.91;;;21.48;79.50
7026;BME280;3554;42.132;24.786;2023-05-08T08:38:44;99568.34;;;21.16;83.09
7026;BME280;3554;42.132;24.786;2023-05-08T08:41:12;99569.66;;;21.21;79.17
7026;BME280;3554;42.132;24.786;2023-05-08T08:43:40;99565.97;;;21.45;82.05
7026;BME280;3554;42.132;24.786;2023-05-08T08:46:10;99559.97;;;21.63;84.64
7026;BME280;3554;42.132;24.786;2023-05-08T08:48:42;99566.09;;;21.75;79.86
7026;BME280;3554;42.132;24.786;2023-05-08T08:51:13;99563.75;;;21.92;78.27
7026;BME280;3554;42.132;24.786;2023-05-08T08:53:43;99564.69;;;22.23;77.65
7026;BME280;3554;42.132;24.786;2023-05-08T08:56:13;99561.28;;;22.00;80.44
7026;BME280;3554;42.132;24.786;2023-05-08T08:58:47;99547.50;;;22.16;80.85
7026;BME280;3554;42.132;24.786;2023-05-08T09:01:17;99545.59;;;22.48;85.10
7026;BME280;3554;42.132;24.786;2023-05-08T09:03:45;99547.09;;;22.62;78.70
7026;BME280;3554;42.132;24.786;2023-05-08T09:06:12;99548.44;;;22.86;75.53
7026;BME280;3554;42.132;24.786;2023-05-08T09:08:40;99544.06;;;22.25;75.25
7026;BME280;3554;42.132;24.786;2023-05-08T09:11:07;99543.75;;;22.49;74.47
7026;BME280;3554;42.132;24.786;2023-05-08T09:13:34;99543.47;;;22.72;77.88
7026;BME280;3554;42.132;24.786;2023-05-08T09:16:03;99533.81;;;22.81;73.44
7026;BME280;3554;42.132;24.786;2023-05-08T09:18:29;99527.56;;;23.01;73.65
7026;BME280;3554;42.132;24.786;2023-05-08T09:20:56;99525.19;;;23.07;71.21
7026;BME280;3554;42.132;24.786;2023-05-08T09:23:24;99522.94;;;23.12;77.67
7026;BME280;3554;42.132;24.786;2023-05-08T09:25:51;99511.06;;;21.85;78.99
7026;BME280;3554;42.132;24.786;2023-05-08T09:28:19;99511.38;;;21.71;80.84
7026;BME280;3554;42.132;24.786;2023-05-08T09:30:50;99501.13;;;22.07;81.16
7026;BME280;3554;42.132;24.786;2023-05-08T09:33:20;99455.34;;;22.02;80.10
7026;BME280;3554;42.132;24.786;2023-05-08T09:35:47;99483.00;;;22.01;86.10
7026;BME280;3554;42.132;24.786;2023-05-08T09:38:34;99485.38;;;22.25;80.68
7026;BME280;3554;42.132;24.786;2023-05-08T09:41:07;99477.03;;;22.18;79.16
7026;BME280;3554;42.132;24.786;2023-05-08T09:43:34;99478.69;;;22.40;84.41
7026;BME280;3554;42.132;24.786;2023-05-08T09:46:18;99471.38;;;22.63;90.30
7026;BME280;3554;42.132;24.786;2023-05-08T09:48:47;99477.28;;;22.57;79.46
7026;BME280;3554;42.132;24.786;2023-05-08T09:51:14;99467.16;;;22.60;85.52
7026;BME280;3554;42.132;24.786;2023-05-08T09:53:41;99462.06;;;22.87;84.28
7026;BME280;3554;42.132;24.786;2023-05-08T09:56:07;99465.50;;;22.69;80.71
7026;BME280;3554;42.132;24.786;2023-05-08T09:58:37;99457.44;;;23.08;81.91
7026;BME280;3554;42.132;24.786;2023-05-08T10:01:05;99462.28;;;23.33;76.32
7026;BME280;3554;42.132;24.786;2023-05-08T10:03:48;99451.66;;;23.03;86.34
7026;BME280;3554;42.132;24.786;2023-05-08T10:06:15;99447.75;;;23.17;83.43
7026;BME280;3554;42.132;24.786;2023-05-08T10:08:42;99439.03;;;23.15;83.88
7026;BME280;3554;42.132;24.786;2023-05-08T10:11:13;99435.25;;;23.17;80.84
7026;BME280;3554;42.132;24.786;2023-05-08T10:13:41;99427.06;;;23.09;86.94
7026;BME280;3554;42.132;24.786;2023-05-08T10:16:12;99436.50;;;22.94;82.09
7026;BME280;3554;42.132;24.786;2023-05-08T10:18:43;99437.56;;;22.82;84.99
7026;BME280;3554;42.132;24.786;2023-05-08T10:21:14;99432.41;;;23.09;84.77
7026;BME280;3554;42.132;24.786;2023-05-08T10:23:42;99436.78;;;23.01;81.07
7026;BME280;3554;42.132;24.786;2023-05-08T10:26:11;99424.53;;;22.98;80.10
7026;BME280;3554;42.132;24.786;2023-05-08T10:28:42;99420.50;;;23.32;77.35
7026;BME280;3554;42.132;24.786;2023-05-08T10:31:11;99413.44;;;23.12;80.35
7026;BME280;3554;42.132;24.786;2023-05-08T10:33:40;99421.59;;;23.11;78.96
7026;BME280;3554;42.132;24.786;2023-05-08T10:36:07;99393.75;;;22.85;79.71
7026;BME280;3554;42.132;24.786;2023-05-08T10:38:36;99418.78;;;23.12;78.48
7026;BME280;3554;42.132;24.786;2023-05-08T10:41:05;99403.31;;;23.25;82.09
7026;BME280;3554;42.132;24.786;2023-05-08T10:43:32;99405.88;;;23.17;86.27
7026;BME280;3554;42.132;24.786;2023-05-08T10:46:02;99408.50;;;22.98;83.27
7026;BME280;3554;42.132;24.786;2023-05-08T10:48:41;99377.03;;;23.02;81.12
7026;BME280;3554;42.132;24.786;2023-05-08T10:51:15;99411.22;;;23.37;80.45
7026;BME280;3554;42.132;24.786;2023-05-08T10:53:48;99410.63;;;23.23;76.81
7026;BME280;3554;42.132;24.786;2023-05-08T10:56:16;99399.69;;;23.46;85.70
7026;BME280;3554;42.132;24.786;2023-05-08T10:58:43;99407.81;;;23.25;78.01
7026;BME280;3554;42.132;24.786;2023-05-08T11:01:11;99401.19;;;23.00;84.12
7026;BME280;3554;42.132;24.786;2023-05-08T11:03:40;99404.72;;;22.82;86.04
7026;BME280;3554;42.132;24.786;2023-05-08T11:06:07;99398.38;;;23.02;81.35
7026;BME280;3554;42.132;24.786;2023-05-08T11:08:43;99389.84;;;23.08;80.83
7026;BME280;3554;42.132;24.786;2023-05-08T11:14:09;99357.78;;;23.08;86.45
7026;BME280;3554;42.132;24.786;2023-05-08T11:17:08;99390.63;;;23.75;84.41
7026;BME280;3554;42.132;24.786;2023-05-08T11:19:36;99381.84;;;24.02;79.69
7026;BME280;3554;42.132;24.786;2023-05-08T11:22:27;99380.06;;;24.29;76.12
7026;BME280;3554;42.132;24.786;2023-05-08T11:24:57;99387.50;;;24.53;71.84
7026;BME280;3554;42.132;24.786;2023-05-08T11:30:35;99375.50;;;23.38;83.31
7026;BME280;3554;42.132;24.786;2023-05-08T11:33:17;99374.94;;;23.53;83.02
7026;BME280;3554;42.132;24.786;2023-05-08T11:35:53;99369.03;;;23.50;84.40
7026;BME280;3554;42.132;24.786;2023-05-08T11:38:25;99360.03;;;23.41;88.08
7026;BME280;3554;42.132;24.786;2023-05-08T11:41:05;99358.69;;;23.74;80.73
7026;BME280;3554;42.132;24.786;2023-05-08T11:44:11;99365.50;;;24.05;82.69
7026;BME280;3554;42.132;24.786;2023-05-08T11:46:48;99352.34;;;24.21;79.95
7026;BME280;3554;42.132;24.786;2023-05-08T11:49:18;99363.00;;;24.30;79.09
7026;BME280;3554;42.132;24.786;2023-05-08T11:51:47;99356.22;;;24.36;75.48
7026;BME280;3554;42.132;24.786;2023-05-08T11:54:16;99367.34;;;24.04;73.51
7026;BME280;3554;42.132;24.786;2023-05-08T11:56:44;99352.00;;;24.06;74.32
7026;BME280;3554;42.132;24.786;2023-05-08T11:59:13;99351.34;;;24.22;77.96
7026;BME280;3554;42.132;24.786;2023-05-08T12:01:40;99348.84;;;24.20;76.32
7026;BME280;3554;42.132;24.786;2023-05-08T12:04:09;99350.13;;;24.44;68.55
7026;BME280;3554;42.132;24.786;2023-05-08T12:06:37;99344.59;;;24.45;69.13
7026;BME280;3554;42.132;24.786;2023-05-08T12:09:10;99336.03;;;24.86;66.91
7026;BME280;3554;42.132;24.786;2023-05-08T12:11:37;99333.53;;;25.46;68.77
7026;BME280;3554;42.132;24.786;2023-05-08T12:14:05;99329.97;;;25.63;66.53
7026;BME280;3554;42.132;24.786;2023-05-08T12:16:35;99323.56;;;24.95;66.08
7026;BME280;3554;42.132;24.786;2023-05-08T12:19:03;99319.31;;;25.10;69.05
7026;BME280;3554;42.132;24.786;2023-05-08T12:21:30;99319.72;;;25.58;67.74
7026;BME280;3554;42.132;24.786;2023-05-08T12:23:57;99323.25;;;25.59;66.20
7026;BME280;3554;42.132;24.786;2023-05-08T12:26:24;99315.56;;;24.68;70.99
7026;BME280;3554;42.132;24.786;2023-05-08T12:28:54;99308.63;;;24.92;72.31
7026;BME280;3554;42.132;24.786;2023-05-08T12:31:21;99311.91;;;25.04;68.62
7026;BME280;3554;42.132;24.786;2023-05-08T12:33:50;99313.91;;;24.22;74.30
7026;BME280;3554;42.132;24.786;2023-05-08T12:36:18;99304.63;;;24.16;75.97
7026;BME280;3554;42.132;24.786;2023-05-08T12:38:45;99303.59;;;24.00;77.65
7026;BME280;3554;42.132;24.786;2023-05-08T12:41:11;99305.84;;;23.95;77.79
7026;BME280;3554;42.132;24.786;2023-05-08T12:43:38;99302.03;;;23.97;82.26
7026;BME280;3554;42.132;24.786;2023-05-08T12:46:10;99282.94;;;24.19;78.83
7026;BME280;3554;42.132;24.786;2023-05-08T12:48:37;99306.00;;;24.65;78.29
7026;BME280;3554;42.132;24.786;2023-05-08T12:51:05;99304.28;;;24.91;72.29
7026;BME280;3554;42.132;24.786;2023-05-08T12:53:32;99295.84;;;24.69;72.56
7026;BME280;3554;42.132;24.786;2023-05-08T12:56:02;99294.97;;;24.33;75.57
7026;BME280;3554;42.132;24.786;2023-05-08T12:58:30;99220.06;;;24.33;76.99
7026;BME280;3554;42.132;24.786;2023-05-08T13:01:08;99302.28;;;24.93;74.81
7026;BME280;3554;42.132;24.786;2023-05-08T13:03:38;99302.75;;;24.71;74.22
7026;BME280;3554;42.132;24.786;2023-05-08T13:06:18;99300.53;;;24.22;76.60
7026;BME280;3554;42.132;24.786;2023-05-08T13:08:51;99305.13;;;23.93;79.06
7026;BME280;3554;42.132;24.786;2023-05-08T13:11:27;99303.78;;;24.16;78.88
7026;BME280;3554;42.132;24.786;2023-05-08T13:13:54;99303.19;;;24.22;77.79
7026;BME280;3554;42.132;24.786;2023-05-08T13:16:21;99291.38;;;23.88;80.83
7026;BME280;3554;42.132;24.786;2023-05-08T13:18:48;99303.22;;;23.39;84.25
7026;BME280;3554;42.132;24.786;2023-05-08T13:21:16;99293.28;;;23.31;83.75
7026;BME280;3554;42.132;24.786;2023-05-08T13:23:42;99292.53;;;23.39;84.57
7026;BME280;3554;42.132;24.786;2023-05-08T13:26:10;99279.16;;;23.39;85.69
7026;BME280;3554;42.132;24.786;2023-05-08T13:28:37;99281.50;;;23.61;83.64
7026;BME280;3554;42.132;24.786;2023-05-08T13:31:03;99285.25;;;23.68;82.86